Claflin, Kansas
Current Conditions -  °F | °C
As of 1:55 PM on Wednesday 17 Dec 2014 (Local Time) from KGBD Reporting Station
Overcast Overcast  
Wind Chill: 22°   Ceiling: 5000
Heat Index: 32°   Visibility: 10mi
Dew Point: 23°   Wind: 14mph
Humidity: 69%   Direction: 120°ESE
Pressure: 30.13"   Gusts: NA
Location:  38.53°N, 98.53°W
Report Text: KGBD 171955Z AUTO 12012KT 10SM OVC050 00/M05 A3013 RMK AO1
Loading
Personal Weather Stations






























Interactive Weather Map New forecast layout! Learn more

10-Day Weather Forecast

Advertisements
Track Severe Weather on mobile